sensor_id;sensor_type;location;lat;lon;timestamp;pressure;altitude;pressure_sealevel;temperature;humidity
51829;BME280;37881;48.024;8.774;2023-04-26T00:00:16;93828.09;;;5.05;100.00
51829;BME280;37881;48.024;8.774;2023-04-26T00:03:03;93833.03;;;4.89;100.00
51829;BME280;37881;48.024;8.774;2023-04-26T00:05:50;93839.28;;;4.89;100.00
51829;BME280;37881;48.024;8.774;2023-04-26T00:08:37;93844.41;;;5.02;100.00
51829;BME280;37881;48.024;8.774;2023-04-26T00:11:24;93837.84;;;5.13;100.00
51829;BME280;37881;48.024;8.774;2023-04-26T00:14:12;93837.84;;;5.20;100.00
51829;BME280;37881;48.024;8.774;2023-04-26T00:16:58;93838.56;;;4.99;100.00
51829;BME280;37881;48.024;8.774;2023-04-26T00:19:45;93841.66;;;4.98;100.00
51829;BME280;37881;48.024;8.774;2023-04-26T00:22:32;93844.75;;;4.96;100.00
51829;BME280;37881;48.024;8.774;2023-04-26T00:25:19;93836.66;;;5.11;100.00
51829;BME280;37881;48.024;8.774;2023-04-26T00:28:06;93838.59;;;5.10;100.00
51829;BME280;37881;48.024;8.774;2023-04-26T00:30:53;93843.03;;;4.63;100.00
51829;BME280;37881;48.024;8.774;2023-04-26T00:33:43;93842.09;;;4.45;100.00
51829;BME280;37881;48.024;8.774;2023-04-26T00:36:30;93840.31;;;4.63;100.00
51829;BME280;37881;48.024;8.774;2023-04-26T00:39:18;93837.69;;;4.81;100.00
51829;BME280;37881;48.024;8.774;2023-04-26T00:42:05;93842.88;;;5.08;100.00
51829;BME280;37881;48.024;8.774;2023-04-26T00:44:52;93840.56;;;5.20;100.00
51829;BME280;37881;48.024;8.774;2023-04-26T00:47:42;93841.78;;;5.34;100.00
51829;BME280;37881;48.024;8.774;2023-04-26T00:50:30;93849.59;;;5.35;100.00
51829;BME280;37881;48.024;8.774;2023-04-26T00:53:18;93849.19;;;5.40;100.00
51829;BME280;37881;48.024;8.774;2023-04-26T00:56:08;93842.22;;;5.39;100.00
51829;BME280;37881;48.024;8.774;2023-04-26T00:58:55;93847.25;;;5.45;100.00
51829;BME280;37881;48.024;8.774;2023-04-26T01:01:42;93850.00;;;5.48;100.00
51829;BME280;37881;48.024;8.774;2023-04-26T01:04:29;93843.03;;;5.54;100.00
51829;BME280;37881;48.024;8.774;2023-04-26T01:07:17;93839.50;;;5.47;100.00
51829;BME280;37881;48.024;8.774;2023-04-26T01:10:04;93835.78;;;4.92;100.00
51829;BME280;37881;48.024;8.774;2023-04-26T01:12:51;93843.06;;;4.74;100.00
51829;BME280;37881;48.024;8.774;2023-04-26T01:15:44;93843.84;;;4.74;100.00
51829;BME280;37881;48.024;8.774;2023-04-26T01:18:31;93846.69;;;4.96;100.00
51829;BME280;37881;48.024;8.774;2023-04-26T01:21:19;93834.34;;;5.09;100.00
51829;BME280;37881;48.024;8.774;2023-04-26T01:24:09;93835.47;;;5.01;100.00
51829;BME280;37881;48.024;8.774;2023-04-26T01:26:56;93832.34;;;5.06;100.00
51829;BME280;37881;48.024;8.774;2023-04-26T01:29:43;93835.47;;;5.08;100.00
51829;BME280;37881;48.024;8.774;2023-04-26T01:32:31;93835.66;;;4.64;100.00
51829;BME280;37881;48.024;8.774;2023-04-26T01:35:18;93832.31;;;4.95;100.00
51829;BME280;37881;48.024;8.774;2023-04-26T01:38:05;93833.53;;;5.05;100.00
51829;BME280;37881;48.024;8.774;2023-04-26T01:40:52;93829.31;;;5.22;100.00
51829;BME280;37881;48.024;8.774;2023-04-26T01:43:39;93833.66;;;5.37;100.00
51829;BME280;37881;48.024;8.774;2023-04-26T01:46:26;93831.69;;;5.34;100.00
51829;BME280;37881;48.024;8.774;2023-04-26T01:49:13;93830.91;;;5.41;100.00
51829;BME280;37881;48.024;8.774;2023-04-26T01:52:00;93834.06;;;5.50;100.00
51829;BME280;37881;48.024;8.774;2023-04-26T01:54:47;93828.22;;;5.48;100.00
51829;BME280;37881;48.024;8.774;2023-04-26T01:57:33;93829.00;;;5.49;100.00
51829;BME280;37881;48.024;8.774;2023-04-26T02:00:20;93824.19;;;4.99;100.00
51829;BME280;37881;48.024;8.774;2023-04-26T02:03:07;93823.13;;;5.25;100.00
51829;BME280;37881;48.024;8.774;2023-04-26T02:05:54;93828.97;;;5.27;100.00
51829;BME280;37881;48.024;8.774;2023-04-26T02:08:41;93825.06;;;5.32;100.00
51829;BME280;37881;48.024;8.774;2023-04-26T02:11:28;93829.34;;;5.36;100.00
51829;BME280;37881;48.024;8.774;2023-04-26T02:14:14;93821.97;;;5.40;100.00
51829;BME280;37881;48.024;8.774;2023-04-26T02:17:02;93823.16;;;5.47;100.00
51829;BME280;37881;48.024;8.774;2023-04-26T02:19:49;93816.56;;;5.55;100.00
51829;BME280;37881;48.024;8.774;2023-04-26T02:22:36;93823.91;;;5.29;100.00
51829;BME280;37881;48.024;8.774;2023-04-26T02:25:23;93831.59;;;5.09;100.00
51829;BME280;37881;48.024;8.774;2023-04-26T02:28:10;93831.75;;;4.61;100.00
51829;BME280;37881;48.024;8.774;2023-04-26T02:30:57;93824.31;;;4.54;100.00
51829;BME280;37881;48.024;8.774;2023-04-26T02:33:44;93839.66;;;4.25;100.00
51829;BME280;37881;48.024;8.774;2023-04-26T02:36:31;93844.19;;;4.07;100.00
51829;BME280;37881;48.024;8.774;2023-04-26T02:39:18;93848.88;;;4.13;100.00
51829;BME280;37881;48.024;8.774;2023-04-26T02:42:09;93838.00;;;4.69;100.00
51829;BME280;37881;48.024;8.774;2023-04-26T02:44:56;93835.59;;;4.53;100.00
51829;BME280;37881;48.024;8.774;2023-04-26T02:47:43;93827.44;;;4.56;100.00
51829;BME280;37881;48.024;8.774;2023-04-26T02:50:30;93833.28;;;4.55;100.00
51829;BME280;37881;48.024;8.774;2023-04-26T02:53:17;93829.84;;;4.69;100.00
51829;BME280;37881;48.024;8.774;2023-04-26T02:56:04;93826.00;;;4.80;100.00
51829;BME280;37881;48.024;8.774;2023-04-26T02:58:51;93830.59;;;4.62;100.00
51829;BME280;37881;48.024;8.774;2023-04-26T03:01:38;93833.75;;;4.71;100.00
51829;BME280;37881;48.024;8.774;2023-04-26T03:04:26;93827.22;;;4.87;100.00
51829;BME280;37881;48.024;8.774;2023-04-26T03:07:13;93823.31;;;4.84;100.00
51829;BME280;37881;48.024;8.774;2023-04-26T03:10:00;93817.06;;;4.76;100.00
51829;BME280;37881;48.024;8.774;2023-04-26T03:12:47;93815.41;;;4.54;100.00
51829;BME280;37881;48.024;8.774;2023-04-26T03:15:34;93816.63;;;4.71;100.00
51829;BME280;37881;48.024;8.774;2023-04-26T03:18:21;93810.91;;;4.87;100.00
51829;BME280;37881;48.024;8.774;2023-04-26T03:21:08;93814.81;;;4.96;100.00
51829;BME280;37881;48.024;8.774;2023-04-26T03:23:54;93806.63;;;4.86;100.00
51829;BME280;37881;48.024;8.774;2023-04-26T03:26:41;93813.63;;;4.83;100.00
51829;BME280;37881;48.024;8.774;2023-04-26T03:29:28;93802.47;;;4.33;100.00
51829;BME280;37881;48.024;8.774;2023-04-26T03:32:15;93803.59;;;4.28;100.00
51829;BME280;37881;48.024;8.774;2023-04-26T03:35:02;93798.16;;;4.28;100.00
51829;BME280;37881;48.024;8.774;2023-04-26T03:37:50;93800.88;;;4.28;100.00
51829;BME280;37881;48.024;8.774;2023-04-26T03:40:39;93794.19;;;4.15;100.00
51829;BME280;37881;48.024;8.774;2023-04-26T03:43:25;93803.13;;;4.15;100.00
51829;BME280;37881;48.024;8.774;2023-04-26T03:46:12;93802.69;;;4.10;100.00
51829;BME280;37881;48.024;8.774;2023-04-26T03:48:59;93804.59;;;4.06;100.00
51829;BME280;37881;48.024;8.774;2023-04-26T03:51:46;93806.91;;;4.04;100.00
51829;BME280;37881;48.024;8.774;2023-04-26T03:54:33;93808.81;;;3.99;100.00
51829;BME280;37881;48.024;8.774;2023-04-26T03:57:20;93811.00;;;3.83;100.00
51829;BME280;37881;48.024;8.774;2023-04-26T04:00:07;93808.41;;;3.97;100.00
51829;BME280;37881;48.024;8.774;2023-04-26T04:02:59;93810.81;;;4.10;100.00
51829;BME280;37881;48.024;8.774;2023-04-26T04:05:46;93807.94;;;3.88;100.00
51829;BME280;37881;48.024;8.774;2023-04-26T04:08:33;93801.09;;;4.05;100.00
51829;BME280;37881;48.024;8.774;2023-04-26T04:11:20;93804.03;;;3.86;100.00
51829;BME280;37881;48.024;8.774;2023-04-26T04:14:07;93804.13;;;3.93;100.00
51829;BME280;37881;48.024;8.774;2023-04-26T04:16:54;93803.59;;;3.80;100.00
51829;BME280;37881;48.024;8.774;2023-04-26T04:19:40;93812.56;;;3.80;100.00
51829;BME280;37881;48.024;8.774;2023-04-26T04:22:27;93811.03;;;3.87;100.00
51829;BME280;37881;48.024;8.774;2023-04-26T04:25:14;93818.72;;;3.77;100.00
51829;BME280;37881;48.024;8.774;2023-04-26T04:28:02;93827.69;;;3.85;100.00
51829;BME280;37881;48.024;8.774;2023-04-26T04:30:49;93820.28;;;3.78;100.00
51829;BME280;37881;48.024;8.774;2023-04-26T04:33:36;93823.16;;;4.00;100.00
51829;BME280;37881;48.024;8.774;2023-04-26T04:36:23;93818.13;;;4.02;100.00
51829;BME280;37881;48.024;8.774;2023-04-26T04:39:11;93822.47;;;4.10;100.00
51829;BME280;37881;48.024;8.774;2023-04-26T04:42:01;93819.03;;;4.17;100.00
51829;BME280;37881;48.024;8.774;2023-04-26T04:44:48;93816.75;;;4.23;100.00
51829;BME280;37881;48.024;8.774;2023-04-26T04:47:36;93815.25;;;4.32;100.00
51829;BME280;37881;48.024;8.774;2023-04-26T04:50:23;93810.25;;;4.38;100.00
51829;BME280;37881;48.024;8.774;2023-04-26T04:53:10;93818.34;;;4.27;100.00
51829;BME280;37881;48.024;8.774;2023-04-26T04:55:58;93829.13;;;4.20;100.00
51829;BME280;37881;48.024;8.774;2023-04-26T04:58:45;93825.03;;;3.89;100.00
51829;BME280;37881;48.024;8.774;2023-04-26T05:01:33;93836.31;;;3.53;100.00
51829;BME280;37881;48.024;8.774;2023-04-26T05:04:21;93840.69;;;3.65;100.00
51829;BME280;37881;48.024;8.774;2023-04-26T05:07:08;93844.97;;;4.07;100.00
51829;BME280;37881;48.024;8.774;2023-04-26T05:09:55;93844.31;;;4.28;100.00
51829;BME280;37881;48.024;8.774;2023-04-26T05:12:42;93832.75;;;4.38;100.00
51829;BME280;37881;48.024;8.774;2023-04-26T05:15:28;93839.56;;;4.70;100.00
51829;BME280;37881;48.024;8.774;2023-04-26T05:18:15;93849.25;;;4.67;100.00
51829;BME280;37881;48.024;8.774;2023-04-26T05:21:02;93847.25;;;4.60;100.00
51829;BME280;37881;48.024;8.774;2023-04-26T05:23:49;93854.69;;;4.12;100.00
51829;BME280;37881;48.024;8.774;2023-04-26T05:26:36;93856.16;;;4.02;100.00
51829;BME280;37881;48.024;8.774;2023-04-26T05:29:27;93858.06;;;3.94;100.00
51829;BME280;37881;48.024;8.774;2023-04-26T05:32:14;93865.78;;;3.96;100.00
51829;BME280;37881;48.024;8.774;2023-04-26T05:35:01;93859.81;;;4.24;100.00
51829;BME280;37881;48.024;8.774;2023-04-26T05:37:48;93861.66;;;4.65;100.00
51829;BME280;37881;48.024;8.774;2023-04-26T05:40:35;93858.28;;;4.82;100.00
51829;BME280;37881;48.024;8.774;2023-04-26T05:43:22;93861.91;;;5.15;100.00
51829;BME280;37881;48.024;8.774;2023-04-26T05:46:09;93857.34;;;5.30;100.00
51829;BME280;37881;48.024;8.774;2023-04-26T05:48:56;93859.34;;;5.44;100.00
51829;BME280;37881;48.024;8.774;2023-04-26T05:51:43;93858.22;;;5.63;100.00
51829;BME280;37881;48.024;8.774;2023-04-26T05:54:29;93853.22;;;5.90;100.00
51829;BME280;37881;48.024;8.774;2023-04-26T05:57:16;93851.28;;;5.97;100.00
51829;BME280;37881;48.024;8.774;2023-04-26T06:00:05;93852.88;;;6.16;100.00
51829;BME280;37881;48.024;8.774;2023-04-26T06:02:52;93852.50;;;6.18;100.00
51829;BME280;37881;48.024;8.774;2023-04-26T06:05:39;93853.63;;;6.46;100.00
51829;BME280;37881;48.024;8.774;2023-04-26T06:08:27;93860.28;;;6.48;100.00
51829;BME280;37881;48.024;8.774;2023-04-26T06:11:14;93858.72;;;6.22;100.00
51829;BME280;37881;48.024;8.774;2023-04-26T06:14:01;93861.31;;;5.61;100.00
51829;BME280;37881;48.024;8.774;2023-04-26T06:16:47;93870.19;;;5.36;100.00
51829;BME280;37881;48.024;8.774;2023-04-26T06:19:35;93871.41;;;5.50;100.00
51829;BME280;37881;48.024;8.774;2023-04-26T06:22:21;93875.81;;;6.15;100.00
51829;BME280;37881;48.024;8.774;2023-04-26T06:25:08;93872.34;;;6.40;100.00
51829;BME280;37881;48.024;8.774;2023-04-26T06:27:55;93874.28;;;6.29;100.00
51829;BME280;37881;48.024;8.774;2023-04-26T06:30:44;93869.94;;;5.85;100.00
51829;BME280;37881;48.024;8.774;2023-04-26T06:33:31;93877.75;;;6.00;100.00
51829;BME280;37881;48.024;8.774;2023-04-26T06:36:18;93878.53;;;5.97;100.00
51829;BME280;37881;48.024;8.774;2023-04-26T06:39:05;93884.25;;;5.60;100.00
51829;BME280;37881;48.024;8.774;2023-04-26T06:41:52;93880.09;;;6.13;100.00
51829;BME280;37881;48.024;8.774;2023-04-26T06:44:39;93870.75;;;6.07;100.00
51829;BME280;37881;48.024;8.774;2023-04-26T06:47:26;93875.94;;;9.56;100.00
51829;BME280;37881;48.024;8.774;2023-04-26T06:50:13;93865.06;;;12.94;82.71
51829;BME280;37881;48.024;8.774;2023-04-26T06:53:00;93864.41;;;13.19;72.61
51829;BME280;37881;48.024;8.774;2023-04-26T06:55:46;93853.03;;;14.43;65.90
51829;BME280;37881;48.024;8.774;2023-04-26T06:58:33;93849.00;;;16.09;57.01
51829;BME280;37881;48.024;8.774;2023-04-26T07:01:20;93861.63;;;16.10;56.58
51829;BME280;37881;48.024;8.774;2023-04-26T07:04:07;93860.13;;;14.70;59.88
51829;BME280;37881;48.024;8.774;2023-04-26T07:06:56;93856.38;;;13.41;62.75
51829;BME280;37881;48.024;8.774;2023-04-26T07:09:43;93854.78;;;12.29;67.60
51829;BME280;37881;48.024;8.774;2023-04-26T07:12:30;93848.53;;;11.92;72.56
51829;BME280;37881;48.024;8.774;2023-04-26T07:15:17;93851.00;;;13.50;65.56
51829;BME280;37881;48.024;8.774;2023-04-26T07:18:04;93851.22;;;12.65;65.45
51829;BME280;37881;48.024;8.774;2023-04-26T07:20:51;93845.28;;;11.77;68.67
51829;BME280;37881;48.024;8.774;2023-04-26T07:23:37;93853.59;;;10.15;76.41
51829;BME280;37881;48.024;8.774;2023-04-26T07:26:25;93855.13;;;8.93;90.68
51829;BME280;37881;48.024;8.774;2023-04-26T07:29:15;93845.41;;;8.85;89.81
51829;BME280;37881;48.024;8.774;2023-04-26T07:32:04;93844.78;;;8.14;96.17
51829;BME280;37881;48.024;8.774;2023-04-26T07:34:51;93844.06;;;8.59;98.20
51829;BME280;37881;48.024;8.774;2023-04-26T07:37:38;93837.59;;;9.22;91.96
51829;BME280;37881;48.024;8.774;2023-04-26T07:40:25;93837.31;;;9.12;90.68
51829;BME280;37881;48.024;8.774;2023-04-26T07:43:11;93836.13;;;9.78;84.18
51829;BME280;37881;48.024;8.774;2023-04-26T07:46:01;93832.84;;;9.87;86.45
51829;BME280;37881;48.024;8.774;2023-04-26T07:48:48;93836.84;;;12.57;73.13
51829;BME280;37881;48.024;8.774;2023-04-26T07:51:35;93831.50;;;13.28;66.09
51829;BME280;37881;48.024;8.774;2023-04-26T07:54:22;93832.59;;;15.93;55.09
51829;BME280;37881;48.024;8.774;2023-04-26T07:57:09;93826.50;;;14.97;55.73
51829;BME280;37881;48.024;8.774;2023-04-26T07:59:57;93830.13;;;11.49;64.55
51829;BME280;37881;48.024;8.774;2023-04-26T08:02:44;93835.50;;;11.56;67.35
51829;BME280;37881;48.024;8.774;2023-04-26T08:05:33;93831.66;;;12.26;66.29
51829;BME280;37881;48.024;8.774;2023-04-26T08:08:21;93826.50;;;12.28;64.40
51829;BME280;37881;48.024;8.774;2023-04-26T08:11:08;93828.09;;;10.93;66.93
51829;BME280;37881;48.024;8.774;2023-04-26T08:13:56;93839.16;;;11.09;68.23
51829;BME280;37881;48.024;8.774;2023-04-26T08:16:43;93835.69;;;11.85;66.89
51829;BME280;37881;48.024;8.774;2023-04-26T08:19:30;93838.56;;;10.98;66.74
51829;BME280;37881;48.024;8.774;2023-04-26T08:22:18;93844.88;;;11.58;65.89
51829;BME280;37881;48.024;8.774;2023-04-26T08:25:05;93842.03;;;11.02;67.32
51829;BME280;37881;48.024;8.774;2023-04-26T08:27:52;93847.72;;;10.91;68.81
51829;BME280;37881;48.024;8.774;2023-04-26T08:30:42;93847.88;;;11.04;66.52
51829;BME280;37881;48.024;8.774;2023-04-26T08:33:29;93854.28;;;10.74;70.71
51829;BME280;37881;48.024;8.774;2023-04-26T08:36:16;93857.63;;;10.62;71.18
51829;BME280;37881;48.024;8.774;2023-04-26T08:39:03;93851.31;;;11.08;69.43
51829;BME280;37881;48.024;8.774;2023-04-26T08:41:52;93847.00;;;10.87;68.64
51829;BME280;37881;48.024;8.774;2023-04-26T08:44:41;93841.50;;;10.64;69.41
51829;BME280;37881;48.024;8.774;2023-04-26T08:47:39;93848.44;;;10.95;69.21
51829;BME280;37881;48.024;8.774;2023-04-26T08:50:27;93842.72;;;11.06;69.77
51829;BME280;37881;48.024;8.774;2023-04-26T08:53:16;93846.78;;;11.62;64.90
51829;BME280;37881;48.024;8.774;2023-04-26T08:56:06;93841.75;;;13.57;60.40
51829;BME280;37881;48.024;8.774;2023-04-26T08:58:54;93843.44;;;15.43;52.84
51829;BME280;37881;48.024;8.774;2023-04-26T09:01:42;93841.19;;;15.29;51.77
51829;BME280;37881;48.024;8.774;2023-04-26T09:04:29;93846.00;;;17.07;46.93
51829;BME280;37881;48.024;8.774;2023-04-26T09:07:26;93823.22;;;20.51;40.06
51829;BME280;37881;48.024;8.774;2023-04-26T09:10:18;93820.63;;;17.27;42.95
51829;BME280;37881;48.024;8.774;2023-04-26T09:13:08;93817.47;;;15.41;46.12
51829;BME280;37881;48.024;8.774;2023-04-26T09:15:55;93838.38;;;11.29;57.98
51829;BME280;37881;48.024;8.774;2023-04-26T09:18:51;93824.44;;;12.65;52.57
51829;BME280;37881;48.024;8.774;2023-04-26T09:21:45;93824.63;;;14.43;47.45
51829;BME280;37881;48.024;8.774;2023-04-26T09:24:48;93819.13;;;14.81;45.53
51829;BME280;37881;48.024;8.774;2023-04-26T09:27:38;93831.56;;;12.13;51.66
51829;BME280;37881;48.024;8.774;2023-04-26T09:30:26;93818.88;;;12.52;54.04
51829;BME280;37881;48.024;8.774;2023-04-26T09:33:14;93823.63;;;12.97;51.48
51829;BME280;37881;48.024;8.774;2023-04-26T09:36:11;93819.13;;;11.89;56.23
51829;BME280;37881;48.024;8.774;2023-04-26T09:38:58;93816.00;;;12.07;58.63
51829;BME280;37881;48.024;8.774;2023-04-26T09:41:45;93823.38;;;10.46;65.25
51829;BME280;37881;48.024;8.774;2023-04-26T09:44:32;93819.19;;;10.85;66.46
51829;BME280;37881;48.024;8.774;2023-04-26T09:47:20;93832.34;;;11.17;64.92
51829;BME280;37881;48.024;8.774;2023-04-26T09:50:07;93833.84;;;10.78;66.39
51829;BME280;37881;48.024;8.774;2023-04-26T09:52:55;93835.47;;;9.98;69.18
51829;BME280;37881;48.024;8.774;2023-04-26T09:55:42;93828.91;;;10.15;69.53
51829;BME280;37881;48.024;8.774;2023-04-26T09:58:29;93823.78;;;8.98;77.49
51829;BME280;37881;48.024;8.774;2023-04-26T10:01:17;93829.47;;;9.14;76.09
51829;BME280;37881;48.024;8.774;2023-04-26T10:04:05;93831.09;;;9.43;73.72
51829;BME280;37881;48.024;8.774;2023-04-26T10:06:53;93829.41;;;9.22;72.67
51829;BME280;37881;48.024;8.774;2023-04-26T10:09:41;93831.47;;;9.10;75.37
51829;BME280;37881;48.024;8.774;2023-04-26T10:12:28;93829.81;;;8.82;77.07
51829;BME280;37881;48.024;8.774;2023-04-26T10:15:15;93822.63;;;10.18;71.00
51829;BME280;37881;48.024;8.774;2023-04-26T10:18:03;93813.44;;;10.02;69.93
51829;BME280;37881;48.024;8.774;2023-04-26T10:20:52;93820.19;;;10.95;66.39
51829;BME280;37881;48.024;8.774;2023-04-26T10:23:41;93818.38;;;10.41;64.60
51829;BME280;37881;48.024;8.774;2023-04-26T10:26:51;93812.09;;;11.08;64.70
51829;BME280;37881;48.024;8.774;2023-04-26T10:36:12;93798.41;;;13.57;54.83
51829;BME280;37881;48.024;8.774;2023-04-26T10:39:18;93808.63;;;12.36;57.85
51829;BME280;37881;48.024;8.774;2023-04-26T10:42:22;93807.31;;;12.25;58.67
51829;BME280;37881;48.024;8.774;2023-04-26T10:45:25;93811.00;;;12.84;55.11
51829;BME280;37881;48.024;8.774;2023-04-26T10:51:07;93790.41;;;13.34;52.52
51829;BME280;37881;48.024;8.774;2023-04-26T10:59:29;93787.94;;;15.15;48.98
51829;BME280;37881;48.024;8.774;2023-04-26T11:05:52;93790.09;;;11.68;52.97
51829;BME280;37881;48.024;8.774;2023-04-26T11:08:40;93785.78;;;11.10;55.91
51829;BME280;37881;48.024;8.774;2023-04-26T11:11:28;93783.41;;;12.05;54.39
51829;BME280;37881;48.024;8.774;2023-04-26T11:14:18;93776.38;;;12.99;53.26
51829;BME280;37881;48.024;8.774;2023-04-26T11:17:05;93779.66;;;12.32;54.09
51829;BME280;37881;48.024;8.774;2023-04-26T11:19:52;93777.94;;;9.94;61.00
51829;BME280;37881;48.024;8.774;2023-04-26T11:22:40;93776.06;;;10.15;61.51
51829;BME280;37881;48.024;8.774;2023-04-26T11:25:29;93770.69;;;11.38;58.48
51829;BME280;37881;48.024;8.774;2023-04-26T11:28:17;93767.59;;;11.16;58.01
51829;BME280;37881;48.024;8.774;2023-04-26T11:31:05;93770.53;;;12.18;56.31
51829;BME280;37881;48.024;8.774;2023-04-26T11:33:53;93772.03;;;11.30;56.25
51829;BME280;37881;48.024;8.774;2023-04-26T11:36:40;93775.34;;;11.22;58.05
51829;BME280;37881;48.024;8.774;2023-04-26T11:39:26;93776.38;;;12.04;55.69
51829;BME280;37881;48.024;8.774;2023-04-26T11:42:13;93779.03;;;12.24;54.82
51829;BME280;37881;48.024;8.774;2023-04-26T11:45:01;93769.00;;;12.96;53.86
51829;BME280;37881;48.024;8.774;2023-04-26T11:47:52;93768.66;;;11.23;56.88
51829;BME280;37881;48.024;8.774;2023-04-26T11:50:40;93774.06;;;10.15;59.84
51829;BME280;37881;48.024;8.774;2023-04-26T11:53:40;93770.25;;;12.62;56.36
51829;BME280;37881;48.024;8.774;2023-04-26T11:56:27;93763.09;;;12.65;54.98
51829;BME280;37881;48.024;8.774;2023-04-26T11:59:22;93772.09;;;10.16;59.41
51829;BME280;37881;48.024;8.774;2023-04-26T12:02:10;93769.38;;;10.87;59.10
51829;BME280;37881;48.024;8.774;2023-04-26T12:04:58;93776.78;;;12.03;56.39
51829;BME280;37881;48.024;8.774;2023-04-26T12:07:48;93764.47;;;13.61;52.83
51829;BME280;37881;48.024;8.774;2023-04-26T12:10:36;93759.41;;;14.23;50.09
51829;BME280;37881;48.024;8.774;2023-04-26T12:13:23;93765.34;;;14.60;48.85
51829;BME280;37881;48.024;8.774;2023-04-26T12:16:13;93762.81;;;14.40;48.89
51829;BME280;37881;48.024;8.774;2023-04-26T12:19:12;93768.47;;;13.98;50.04
51829;BME280;37881;48.024;8.774;2023-04-26T12:21:59;93773.56;;;12.86;51.32
51829;BME280;37881;48.024;8.774;2023-04-26T12:24:45;93762.03;;;13.88;50.04
51829;BME280;37881;48.024;8.774;2023-04-26T12:27:33;93759.63;;;13.90;49.46
51829;BME280;37881;48.024;8.774;2023-04-26T12:30:21;93755.06;;;14.48;48.14
51829;BME280;37881;48.024;8.774;2023-04-26T12:33:08;93766.59;;;15.16;47.36
51829;BME280;37881;48.024;8.774;2023-04-26T12:36:07;93758.72;;;14.57;47.89
51829;BME280;37881;48.024;8.774;2023-04-26T12:38:54;93755.97;;;14.57;46.43
51829;BME280;37881;48.024;8.774;2023-04-26T12:41:43;93753.56;;;14.82;46.00
51829;BME280;37881;48.024;8.774;2023-04-26T12:44:30;93751.44;;;14.38;46.32
51829;BME280;37881;48.024;8.774;2023-04-26T12:47:17;93752.91;;;13.91;48.10
51829;BME280;37881;48.024;8.774;2023-04-26T12:50:04;93746.94;;;13.93;48.38
51829;BME280;37881;48.024;8.774;2023-04-26T12:52:52;93743.41;;;14.05;46.82
51829;BME280;37881;48.024;8.774;2023-04-26T12:55:39;93749.97;;;13.44;48.14
51829;BME280;37881;48.024;8.774;2023-04-26T12:58:26;93742.91;;;13.13;48.48
51829;BME280;37881;48.024;8.774;2023-04-26T13:01:14;93740.22;;;13.81;47.57
51829;BME280;37881;48.024;8.774;2023-04-26T13:04:01;93741.28;;;14.35;46.57
51829;BME280;37881;48.024;8.774;2023-04-26T13:06:51;93746.00;;;13.15;49.88
51829;BME280;37881;48.024;8.774;2023-04-26T13:09:38;93741.59;;;13.34;50.30
51829;BME280;37881;48.024;8.774;2023-04-26T13:12:25;93758.06;;;12.47;53.34
51829;BME280;37881;48.024;8.774;2023-04-26T13:15:12;93753.22;;;12.51;53.32
51829;BME280;37881;48.024;8.774;2023-04-26T13:18:02;93742.25;;;12.02;54.23
51829;BME280;37881;48.024;8.774;2023-04-26T13:20:49;93751.00;;;12.62;53.04
51829;BME280;37881;48.024;8.774;2023-04-26T13:23:37;93750.38;;;11.89;55.94
51829;BME280;37881;48.024;8.774;2023-04-26T13:26:23;93743.69;;;11.90;56.73
51829;BME280;37881;48.024;8.774;2023-04-26T13:29:13;93745.78;;;12.02;56.54
51829;BME280;37881;48.024;8.774;2023-04-26T13:32:00;93736.34;;;11.10;59.69
51829;BME280;37881;48.024;8.774;2023-04-26T13:34:48;93739.84;;;12.20;56.75
51829;BME280;37881;48.024;8.774;2023-04-26T13:37:35;93737.94;;;12.33;56.17
51829;BME280;37881;48.024;8.774;2023-04-26T13:40:22;93739.56;;;12.47;55.09
51829;BME280;37881;48.024;8.774;2023-04-26T13:43:09;93727.19;;;12.06;55.83
51829;BME280;37881;48.024;8.774;2023-04-26T13:45:56;93714.91;;;12.11;55.74
51829;BME280;37881;48.024;8.774;2023-04-26T13:48:43;93715.13;;;12.66;55.49
51829;BME280;37881;48.024;8.774;2023-04-26T13:51:30;93710.75;;;13.10;54.44
51829;BME280;37881;48.024;8.774;2023-04-26T13:54:19;93710.56;;;12.88;54.33
51829;BME280;37881;48.024;8.774;2023-04-26T13:57:08;93712.16;;;12.73;54.25
51829;BME280;37881;48.024;8.774;2023-04-26T13:59:55;93711.88;;;12.38;54.27
51829;BME280;37881;48.024;8.774;2023-04-26T14:02:42;93713.00;;;12.24;55.17
51829;BME280;37881;48.024;8.774;2023-04-26T14:05:29;93714.97;;;12.40;56.30
51829;BME280;37881;48.024;8.774;2023-04-26T14:08:16;93711.22;;;12.63;55.35
51829;BME280;37881;48.024;8.774;2023-04-26T14:11:04;93706.78;;;12.53;55.18
51829;BME280;37881;48.024;8.774;2023-04-26T14:13:51;93713.00;;;12.41;54.39
51829;BME280;37881;48.024;8.774;2023-04-26T14:16:41;93714.97;;;12.40;54.72
51829;BME280;37881;48.024;8.774;2023-04-26T14:19:28;93704.25;;;12.13;56.02
51829;BME280;37881;48.024;8.774;2023-04-26T14:22:15;93715.88;;;12.66;55.08
51829;BME280;37881;48.024;8.774;2023-04-26T14:25:03;93722.81;;;12.71;55.35
51829;BME280;37881;48.024;8.774;2023-04-26T14:27:51;93720.66;;;12.33;57.10
51829;BME280;37881;48.024;8.774;2023-04-26T14:30:39;93718.00;;;11.96;58.91
51829;BME280;37881;48.024;8.774;2023-04-26T14:33:26;93717.31;;;11.92;58.30
51829;BME280;37881;48.024;8.774;2023-04-26T14:36:12;93715.78;;;12.24;58.03
51829;BME280;37881;48.024;8.774;2023-04-26T14:38:59;93723.97;;;12.57;57.86
51829;BME280;37881;48.024;8.774;2023-04-26T14:41:46;93716.19;;;12.23;59.70
51829;BME280;37881;48.024;8.774;2023-04-26T14:44:33;93704.94;;;12.17;59.32
51829;BME280;37881;48.024;8.774;2023-04-26T14:47:20;93702.69;;;12.28;59.81
51829;BME280;37881;48.024;8.774;2023-04-26T14:50:08;93706.44;;;12.51;60.49
51829;BME280;37881;48.024;8.774;2023-04-26T14:52:55;93695.75;;;12.24;58.96
51829;BME280;37881;48.024;8.774;2023-04-26T14:55:42;93689.63;;;12.91;59.70
51829;BME280;37881;48.024;8.774;2023-04-26T14:58:29;93699.16;;;13.03;58.65
51829;BME280;37881;48.024;8.774;2023-04-26T15:01:16;93694.66;;;13.09;57.88
51829;BME280;37881;48.024;8.774;2023-04-26T15:04:03;93691.34;;;12.72;56.98
51829;BME280;37881;48.024;8.774;2023-04-26T15:06:50;93693.72;;;13.28;57.57